createdAt,value
2018-06-08T00:00:05.428Z,7.40
2018-06-08T00:02:33.761Z,8.27
2018-06-08T00:05:02.073Z,6.70
2018-06-08T00:07:30.399Z,7.43
2018-06-08T00:09:58.728Z,7.47
2018-06-08T00:12:27.058Z,7.87
2018-06-08T00:14:55.365Z,8.00
2018-06-08T00:17:23.697Z,8.17
2018-06-08T00:19:52.009Z,8.03
2018-06-08T00:22:20.339Z,8.30
2018-06-08T00:24:48.657Z,7.87
2018-06-08T00:27:16.984Z,8.07
2018-06-08T00:29:45.292Z,7.43
2018-06-08T00:32:13.625Z,8.33
2018-06-08T00:34:41.938Z,7.63
2018-06-08T00:37:10.273Z,7.77
2018-06-08T00:39:38.584Z,8.60
2018-06-08T00:42:06.933Z,7.93
2018-06-08T00:44:35.240Z,8.43
2018-06-08T00:47:03.588Z,7.83
2018-06-08T00:49:31.908Z,7.90
2018-06-08T00:52:00.234Z,8.70
2018-06-08T00:54:28.554Z,7.80
2018-06-08T00:57:07.166Z,9.13
2018-06-08T00:59:35.525Z,8.10
2018-06-08T01:02:03.857Z,8.43
2018-06-08T01:04:32.189Z,7.63
2018-06-08T01:07:00.505Z,8.27
2018-06-08T01:09:29.014Z,8.43
2018-06-08T01:11:57.369Z,8.20
2018-06-08T01:14:33.145Z,8.40
2018-06-08T01:17:01.769Z,8.23
2018-06-08T01:19:34.077Z,8.17
2018-06-08T01:22:02.597Z,8.60
2018-06-08T01:24:30.952Z,8.70
2018-06-08T01:26:59.297Z,8.57
2018-06-08T01:29:27.645Z,8.90
2018-06-08T01:31:55.955Z,9.10
2018-06-08T01:34:24.288Z,9.70
2018-06-08T01:36:52.614Z,9.10
2018-06-08T01:39:20.937Z,9.70
2018-06-08T01:41:49.244Z,9.80
2018-06-08T01:44:17.578Z,10.40
2018-06-08T01:46:45.897Z,9.73
2018-06-08T01:49:14.224Z,10.37
2018-06-08T01:51:42.534Z,9.50
2018-06-08T01:54:10.864Z,9.37
2018-06-08T01:56:39.172Z,10.37
2018-06-08T01:59:07.500Z,9.97
2018-06-08T02:01:35.813Z,10.00
2018-06-08T02:04:04.164Z,10.10
2018-06-08T02:06:32.498Z,9.30
2018-06-08T02:09:00.852Z,9.20
2018-06-08T02:11:29.170Z,10.60
2018-06-08T02:13:57.513Z,9.43
2018-06-08T02:16:25.829Z,10.10
2018-06-08T02:18:54.137Z,9.43
2018-06-08T02:21:22.507Z,10.77
2018-06-08T02:23:50.813Z,10.33
2018-06-08T02:26:19.141Z,10.90
2018-06-08T02:28:47.459Z,9.37
2018-06-08T02:31:15.789Z,10.30
2018-06-08T02:33:44.120Z,10.60
2018-06-08T02:36:12.457Z,10.40
2018-06-08T02:38:41.084Z,9.87
2018-06-08T02:41:09.417Z,8.57
2018-06-08T02:43:37.734Z,9.47
2018-06-08T02:46:06.070Z,10.23
2018-06-08T02:48:34.395Z,10.30
2018-06-08T02:51:02.728Z,10.40
2018-06-08T02:53:31.041Z,9.67
2018-06-08T02:55:59.374Z,11.20
2018-06-08T02:58:27.685Z,10.70
2018-06-08T03:00:56.018Z,10.03
2018-06-08T03:03:24.338Z,10.47
2018-06-08T03:05:52.678Z,11.33
2018-06-08T03:08:21.009Z,11.47
2018-06-08T03:10:49.341Z,9.73
2018-06-08T03:13:17.649Z,10.97
2018-06-08T03:15:45.985Z,12.17
2018-06-08T03:18:14.293Z,11.20
2018-06-08T03:20:42.625Z,11.90
2018-06-08T03:23:10.940Z,12.37
2018-06-08T03:25:39.278Z,10.67
2018-06-08T03:28:07.581Z,10.93
2018-06-08T03:30:35.914Z,11.97
2018-06-08T03:33:04.228Z,10.77
2018-06-08T03:35:32.573Z,11.00
2018-06-08T03:38:00.898Z,11.20
2018-06-08T03:40:29.216Z,11.70
2018-06-08T03:42:57.551Z,10.97
2018-06-08T03:45:25.872Z,10.40
2018-06-08T03:47:54.214Z,11.50
2018-06-08T03:50:22.537Z,10.77
2018-06-08T03:52:50.869Z,11.50
2018-06-08T03:55:19.179Z,12.00
2018-06-08T03:57:47.517Z,11.87
2018-06-08T04:00:15.833Z,11.10
2018-06-08T04:02:44.169Z,10.60
2018-06-08T04:05:12.490Z,11.20
2018-06-08T04:07:40.842Z,10.77
2018-06-08T04:10:09.161Z,11.27
2018-06-08T04:12:37.501Z,11.30
2018-06-08T04:15:05.884Z,11.47
2018-06-08T04:17:34.227Z,11.07
2018-06-08T04:20:02.543Z,12.17
2018-06-08T04:22:30.876Z,11.63
2018-06-08T04:24:59.189Z,10.87
2018-06-08T04:27:27.525Z,10.67
2018-06-08T04:29:55.842Z,10.37
2018-06-08T04:32:24.190Z,10.20
2018-06-08T04:34:52.530Z,11.50
2018-06-08T04:37:20.870Z,11.13
2018-06-08T04:39:49.185Z,12.53
2018-06-08T04:42:17.523Z,10.57
2018-06-08T04:44:45.848Z,10.00
2018-06-08T04:47:14.173Z,11.77
2018-06-08T04:49:42.489Z,10.90
2018-06-08T04:52:10.836Z,12.63
2018-06-08T04:54:39.153Z,13.10
2018-06-08T04:57:07.476Z,10.97
2018-06-08T04:59:35.813Z,12.60
2018-06-08T05:02:04.152Z,13.80
2018-06-08T05:04:32.483Z,14.47
2018-06-08T05:07:00.792Z,14.77
2018-06-08T05:09:29.141Z,14.40
2018-06-08T05:11:57.451Z,13.10
2018-06-08T05:14:25.796Z,13.23
2018-06-08T05:16:54.109Z,10.90
2018-06-08T05:19:22.437Z,13.27
2018-06-08T05:21:50.741Z,13.30
2018-06-08T05:24:19.073Z,13.03
2018-06-08T05:26:47.386Z,12.90
2018-06-08T05:29:15.728Z,12.90
2018-06-08T05:31:44.079Z,13.47
2018-06-08T05:34:12.421Z,12.97
2018-06-08T05:36:40.730Z,11.40
2018-06-08T05:39:09.155Z,11.60
2018-06-08T05:41:37.569Z,14.10
2018-06-08T05:44:06.003Z,12.30
2018-06-08T05:46:34.322Z,12.30
2018-06-08T05:49:02.648Z,12.17
2018-06-08T05:51:30.962Z,12.30
2018-06-08T05:53:59.293Z,12.73
2018-06-08T05:56:27.721Z,13.20
2018-06-08T05:58:56.052Z,12.03
2018-06-08T06:01:24.369Z,11.97
2018-06-08T06:03:52.693Z,10.40
2018-06-08T06:06:21.005Z,11.40
2018-06-08T06:08:49.350Z,11.23
2018-06-08T06:11:17.697Z,11.93
2018-06-08T06:13:45.776Z,11.73
2018-06-08T06:16:14.120Z,11.47
2018-06-08T06:18:42.442Z,11.13
2018-06-08T06:21:10.769Z,11.37
2018-06-08T06:23:39.091Z,10.90
2018-06-08T06:26:07.430Z,11.10
2018-06-08T06:28:35.738Z,9.90
2018-06-08T06:31:04.069Z,11.87
2018-06-08T06:33:32.389Z,11.33
2018-06-08T06:36:00.714Z,11.40
2018-06-08T06:38:29.025Z,11.20
2018-06-08T06:40:57.908Z,10.00
2018-06-08T06:43:26.272Z,11.50
2018-06-08T06:45:54.606Z,10.30
2018-06-08T06:48:24.284Z,10.33
2018-06-08T06:50:52.649Z,9.17
2018-06-08T06:53:20.968Z,10.40
2018-06-08T06:55:49.058Z,10.33
2018-06-08T06:58:17.113Z,9.70
2018-06-08T07:00:45.440Z,10.37
2018-06-08T07:03:13.762Z,11.10
2018-06-08T07:05:42.100Z,10.40
2018-06-08T07:08:10.429Z,11.07
2018-06-08T07:10:38.757Z,11.57
2018-06-08T07:13:07.148Z,10.70
2018-06-08T07:15:35.486Z,10.53
2018-06-08T07:18:03.802Z,10.90
2018-06-08T07:20:32.138Z,10.57
2018-06-08T07:23:00.441Z,9.13
2018-06-08T07:25:28.765Z,10.07
2018-06-08T07:27:57.073Z,10.80
2018-06-08T07:30:25.404Z,11.00
2018-06-08T07:32:53.726Z,10.23
2018-06-08T07:35:22.069Z,10.60
2018-06-08T07:37:50.401Z,10.63
2018-06-08T07:40:18.737Z,9.30
2018-06-08T07:42:47.066Z,10.87
2018-06-08T07:45:15.381Z,9.60
2018-06-08T07:47:43.709Z,8.97
2018-06-08T07:50:12.022Z,8.83
2018-06-08T07:52:40.353Z,9.20
2018-06-08T07:55:08.653Z,8.40
2018-06-08T07:57:36.985Z,8.57
2018-06-08T08:02:40.393Z,8.73
2018-06-08T08:05:08.693Z,8.90
2018-06-08T08:07:37.018Z,8.50
2018-06-08T08:10:05.341Z,9.37
2018-06-08T08:12:33.764Z,8.33
2018-06-08T08:15:02.081Z,9.03
2018-06-08T08:17:30.410Z,8.40
2018-06-08T08:19:58.802Z,8.70
2018-06-08T08:22:27.585Z,8.00
2018-06-08T08:24:55.973Z,7.80
2018-06-08T08:27:24.313Z,8.27
2018-06-08T08:29:52.650Z,8.57
2018-06-08T08:32:21.105Z,7.93
2018-06-08T08:34:49.440Z,8.60
2018-06-08T08:37:17.769Z,9.17
2018-06-08T08:39:46.113Z,8.77
2018-06-08T08:42:14.456Z,9.33
2018-06-08T08:44:42.853Z,8.87
2018-06-08T08:47:11.194Z,8.80
2018-06-08T08:49:39.652Z,7.90
2018-06-08T08:52:08.125Z,7.77
2018-06-08T08:54:36.805Z,8.40
2018-06-08T08:57:05.278Z,8.23
2018-06-08T08:59:33.320Z,8.23
2018-06-08T09:02:01.637Z,8.30
2018-06-08T09:04:29.972Z,8.43
2018-06-08T09:06:58.291Z,8.93
2018-06-08T09:09:26.641Z,7.57
2018-06-08T09:11:54.957Z,7.63
2018-06-08T09:14:23.285Z,7.77
2018-06-08T09:16:51.593Z,7.93
2018-06-08T09:19:19.935Z,7.67
2018-06-08T09:21:48.245Z,9.13
2018-06-08T09:24:16.572Z,8.50
2018-06-08T09:26:44.882Z,7.63
2018-06-08T09:29:13.208Z,8.67
2018-06-08T09:31:41.521Z,9.07
2018-06-08T09:34:09.853Z,9.53
2018-06-08T09:36:38.176Z,8.37
2018-06-08T09:39:07.373Z,7.80
2018-06-08T09:41:35.857Z,8.47
2018-06-08T09:44:04.190Z,6.73
2018-06-08T09:46:32.509Z,7.47
2018-06-08T09:49:00.845Z,7.50
2018-06-08T09:51:29.181Z,6.53
2018-06-08T09:53:57.515Z,7.63
2018-06-08T09:56:25.821Z,7.07
2018-06-08T09:58:54.165Z,7.87
2018-06-08T10:01:22.474Z,7.30
2018-06-08T10:03:50.801Z,7.77
2018-06-08T10:06:19.109Z,8.07
2018-06-08T10:08:47.553Z,8.53
2018-06-08T10:11:15.878Z,8.90
2018-06-08T10:13:44.213Z,8.90
2018-06-08T10:16:12.513Z,5.43
2018-06-08T10:18:40.869Z,7.93
2018-06-08T10:21:09.176Z,8.17
2018-06-08T10:23:37.577Z,7.97
2018-06-08T10:26:05.923Z,8.10
2018-06-08T10:28:34.025Z,8.00
2018-06-08T10:31:02.349Z,7.67
2018-06-08T10:33:30.649Z,8.00
2018-06-08T10:35:58.973Z,7.90
2018-06-08T10:38:27.278Z,8.60
2018-06-08T10:40:55.633Z,8.37
2018-06-08T10:43:23.945Z,7.77
2018-06-08T10:45:52.277Z,7.50
2018-06-08T10:48:20.603Z,6.67
2018-06-08T10:50:48.930Z,6.30
2018-06-08T10:53:18.253Z,6.10
2018-06-08T10:55:46.584Z,6.93
2018-06-08T10:58:14.894Z,7.50
2018-06-08T11:00:43.217Z,6.27
2018-06-08T11:03:11.580Z,5.53
2018-06-08T11:05:39.906Z,6.57
2018-06-08T11:08:08.233Z,6.40
2018-06-08T11:10:36.567Z,6.53
2018-06-08T11:13:04.883Z,7.17
2018-06-08T11:15:33.222Z,6.40
2018-06-08T11:18:01.525Z,6.93
2018-06-08T11:20:29.846Z,7.73
2018-06-08T11:22:58.165Z,7.90
2018-06-08T11:25:26.509Z,8.00
2018-06-08T11:27:54.829Z,7.33
2018-06-08T11:30:23.154Z,6.90
2018-06-08T11:32:51.477Z,7.97
2018-06-08T11:35:19.810Z,6.43
2018-06-08T11:37:48.117Z,7.33
2018-06-08T11:40:16.432Z,7.50
2018-06-08T11:42:44.764Z,7.27
2018-06-08T11:45:13.085Z,7.47
2018-06-08T11:47:41.413Z,7.27
2018-06-08T11:50:09.472Z,7.33
2018-06-08T11:52:37.797Z,6.40
2018-06-08T11:55:06.110Z,6.03
2018-06-08T11:57:34.433Z,6.17
2018-06-08T12:00:02.778Z,6.23
2018-06-08T12:02:31.132Z,6.83
2018-06-08T12:04:59.445Z,7.17
2018-06-08T12:07:27.768Z,6.47
2018-06-08T12:09:56.105Z,6.23
2018-06-08T12:12:24.429Z,6.33
2018-06-08T12:14:52.746Z,6.97
2018-06-08T12:17:21.101Z,7.43
2018-06-08T12:19:49.414Z,7.03
2018-06-08T12:22:17.767Z,6.70
2018-06-08T12:24:46.081Z,6.17
2018-06-08T12:27:14.401Z,6.23
2018-06-08T12:29:42.705Z,6.70
2018-06-08T12:32:11.037Z,8.70
2018-06-08T12:34:39.350Z,6.83
2018-06-08T12:37:07.766Z,7.17
2018-06-08T12:39:36.069Z,6.80
2018-06-08T12:42:04.385Z,7.10
2018-06-08T12:44:32.733Z,7.20
2018-06-08T12:47:01.085Z,6.27
2018-06-08T12:49:29.392Z,6.77
2018-06-08T12:51:57.720Z,7.53
2018-06-08T12:54:26.029Z,7.33
2018-06-08T12:56:54.373Z,6.90
2018-06-08T12:59:22.764Z,7.30
2018-06-08T13:01:51.076Z,6.70
2018-06-08T13:04:19.409Z,7.70
2018-06-08T13:06:47.733Z,8.37
2018-06-08T13:09:16.086Z,7.90
2018-06-08T13:11:44.405Z,7.77
2018-06-08T13:14:12.760Z,7.53
2018-06-08T13:16:41.091Z,7.30
2018-06-08T13:19:09.611Z,7.70
2018-06-08T13:21:37.793Z,7.63
2018-06-08T13:24:06.177Z,8.07
2018-06-08T13:26:34.491Z,8.10
2018-06-08T13:29:02.826Z,7.60
2018-06-08T13:31:31.233Z,7.70
2018-06-08T13:33:59.589Z,7.83
2018-06-08T13:36:27.884Z,7.93
2018-06-08T13:38:56.213Z,7.40
2018-06-08T13:41:24.517Z,7.10
2018-06-08T13:43:52.857Z,7.30
2018-06-08T13:46:32.561Z,8.30
2018-06-08T13:49:00.881Z,7.33
2018-06-08T13:51:29.189Z,7.20
2018-06-08T13:53:57.519Z,7.40
2018-06-08T13:56:25.828Z,7.43
2018-06-08T13:58:54.160Z,6.90
2018-06-08T14:01:22.490Z,5.97
2018-06-08T14:03:50.823Z,6.90
2018-06-08T14:06:23.272Z,6.87
2018-06-08T14:08:51.624Z,7.77
2018-06-08T14:11:19.993Z,7.30
2018-06-08T14:13:48.396Z,7.73
2018-06-08T14:16:16.709Z,6.13
2018-06-08T14:18:45.038Z,6.50
2018-06-08T14:21:13.373Z,7.70
2018-06-08T14:23:41.436Z,5.70
2018-06-08T14:26:09.774Z,6.63
2018-06-08T14:28:38.080Z,6.90
2018-06-08T14:31:06.413Z,6.70
2018-06-08T14:33:34.817Z,6.87
2018-06-08T14:36:09.760Z,6.70
2018-06-08T14:38:38.629Z,7.00
2018-06-08T14:41:08.314Z,6.63
2018-06-08T14:43:36.637Z,6.67
2018-06-08T14:46:04.986Z,6.73
2018-06-08T14:48:33.301Z,7.40
2018-06-08T14:51:01.633Z,6.73
2018-06-08T14:53:29.964Z,6.97
2018-06-08T14:55:58.296Z,6.50
2018-06-08T14:58:26.617Z,6.60
2018-06-08T15:00:54.985Z,7.50
2018-06-08T15:03:23.293Z,6.60
2018-06-08T15:05:51.649Z,6.97
2018-06-08T15:08:20.022Z,6.70
2018-06-08T15:10:48.374Z,6.97
2018-06-08T15:13:16.683Z,5.63
2018-06-08T15:15:45.086Z,5.90
2018-06-08T15:18:13.562Z,6.87
2018-06-08T15:20:42.285Z,6.53
2018-06-08T15:23:10.811Z,6.53
2018-06-08T15:25:39.449Z,6.20
2018-06-08T15:28:07.766Z,6.37
2018-06-08T15:30:36.089Z,6.00
2018-06-08T15:33:04.593Z,6.20
2018-06-08T15:35:32.914Z,7.03
2018-06-08T15:38:01.342Z,6.57
2018-06-08T15:40:29.745Z,7.03
2018-06-08T15:42:58.076Z,6.80
2018-06-08T15:45:26.402Z,6.50
2018-06-08T15:47:54.809Z,6.37
2018-06-08T15:50:23.143Z,6.10
2018-06-08T15:52:51.452Z,6.07
2018-06-08T15:55:19.761Z,6.63
2018-06-08T15:57:48.096Z,6.03
2018-06-08T16:00:16.418Z,6.17
2018-06-08T16:02:44.798Z,6.73
2018-06-08T16:05:13.106Z,6.70
2018-06-08T16:07:41.442Z,7.10
2018-06-08T16:10:09.785Z,7.07
2018-06-08T16:12:38.437Z,6.67
2018-06-08T16:15:07.489Z,6.60
2018-06-08T16:17:35.817Z,6.57
2018-06-08T16:20:04.129Z,6.90
2018-06-08T16:22:32.965Z,6.60
2018-06-08T16:25:01.390Z,6.70
2018-06-08T16:27:29.814Z,6.40
2018-06-08T16:29:58.230Z,7.00
2018-06-08T16:32:26.610Z,6.60
2018-06-08T16:34:55.265Z,7.30
2018-06-08T16:37:24.692Z,8.30
2018-06-08T16:39:53.064Z,6.87
2018-06-08T16:42:21.554Z,6.40
2018-06-08T16:44:49.874Z,6.90
2018-06-08T16:47:18.288Z,6.07
2018-06-08T16:49:46.589Z,6.90
2018-06-08T16:52:15.835Z,6.17
2018-06-08T16:54:45.083Z,6.70
2018-06-08T16:57:14.170Z,6.93
2018-06-08T16:59:43.237Z,6.80
2018-06-08T17:02:12.329Z,7.10
2018-06-08T17:04:40.642Z,7.23
2018-06-08T17:07:08.716Z,7.07
2018-06-08T17:09:37.037Z,8.03
2018-06-08T17:12:05.378Z,7.80
2018-06-08T17:14:33.689Z,7.53
2018-06-08T17:17:02.034Z,7.30
2018-06-08T17:19:30.388Z,6.43
2018-06-08T17:21:58.730Z,7.73
2018-06-08T17:24:27.057Z,7.57
2018-06-08T17:26:55.369Z,7.63
2018-06-08T17:29:23.689Z,7.77
2018-06-08T17:31:51.993Z,7.20
2018-06-08T17:34:20.328Z,8.63
2018-06-08T17:36:48.637Z,8.87
2018-06-08T17:39:16.973Z,7.20
2018-06-08T17:41:45.278Z,7.97
2018-06-08T17:44:13.625Z,8.73
2018-06-08T17:46:41.934Z,9.17
2018-06-08T17:49:10.263Z,6.60
2018-06-08T17:51:38.585Z,7.10
2018-06-08T17:54:06.917Z,6.57
2018-06-08T17:56:35.274Z,7.17
2018-06-08T17:59:03.601Z,7.80
2018-06-08T18:01:36.421Z,6.97
2018-06-08T18:04:04.781Z,7.13
2018-06-08T18:06:33.133Z,7.30
2018-06-08T18:09:01.473Z,7.03
2018-06-08T18:11:29.780Z,7.50
2018-06-08T18:13:58.100Z,8.07
2018-06-08T18:16:26.405Z,7.77
2018-06-08T18:18:54.733Z,8.27
2018-06-08T18:21:23.041Z,7.83
2018-06-08T18:23:51.385Z,8.80
2018-06-08T18:26:19.700Z,8.70
2018-06-08T18:28:48.034Z,8.17
2018-06-08T18:31:16.353Z,8.67
2018-06-08T18:33:44.687Z,9.17
2018-06-08T18:36:12.999Z,8.63
2018-06-08T18:38:41.453Z,8.63
2018-06-08T18:41:09.796Z,8.40
2018-06-08T18:43:40.856Z,7.97
2018-06-08T18:46:10.554Z,8.73
2018-06-08T18:48:38.946Z,8.37
2018-06-08T18:51:08.550Z,8.87
2018-06-08T18:53:37.229Z,9.30
2018-06-08T18:56:07.173Z,8.03
2018-06-08T18:58:35.534Z,8.83
2018-06-08T19:01:04.745Z,8.90
2018-06-08T19:03:33.114Z,9.20
2018-06-08T19:06:01.486Z,8.47
2018-06-08T19:08:29.841Z,8.47
2018-06-08T19:10:58.169Z,9.20
2018-06-08T19:13:26.497Z,9.10
2018-06-08T19:15:54.828Z,9.93
2018-06-08T19:18:23.169Z,9.73
2018-06-08T19:20:51.501Z,9.40
2018-06-08T19:23:19.818Z,9.30
2018-06-08T19:25:48.136Z,9.37
2018-06-08T19:28:16.445Z,9.70
2018-06-08T19:30:44.786Z,9.40
2018-06-08T19:33:16.492Z,9.10
2018-06-08T19:35:44.834Z,9.10
2018-06-08T19:38:13.145Z,9.23
2018-06-08T19:40:41.484Z,9.30
2018-06-08T19:43:09.789Z,9.50
2018-06-08T19:45:38.122Z,9.70
2018-06-08T19:48:06.518Z,9.23
2018-06-08T19:50:34.841Z,9.87
2018-06-08T19:53:03.158Z,10.00
2018-06-08T19:55:31.497Z,10.63
2018-06-08T19:57:59.818Z,9.50
2018-06-08T20:00:27.904Z,9.77
2018-06-08T20:02:56.354Z,9.20
2018-06-08T20:05:24.879Z,10.73
2018-06-08T20:07:53.212Z,9.47
2018-06-08T20:10:21.861Z,11.03
2018-06-08T20:12:50.237Z,9.80
2018-06-08T20:15:19.609Z,10.63
2018-06-08T20:17:48.300Z,10.60
2018-06-08T20:20:16.617Z,9.30
2018-06-08T20:22:44.948Z,9.80
2018-06-08T20:25:13.273Z,11.73
2018-06-08T20:27:41.600Z,10.13
2018-06-08T20:30:09.913Z,10.37
2018-06-08T20:32:38.248Z,9.90
2018-06-08T20:35:06.585Z,10.30
2018-06-08T20:37:34.937Z,10.37
2018-06-08T20:40:03.266Z,10.70
2018-06-08T20:42:31.602Z,10.23
2018-06-08T20:44:59.913Z,10.40
2018-06-08T20:47:28.338Z,10.50
2018-06-08T20:49:56.661Z,10.70
2018-06-08T20:52:24.740Z,10.00
2018-06-08T20:54:53.056Z,10.57
2018-06-08T20:57:26.140Z,10.90
2018-06-08T20:59:54.466Z,11.13
2018-06-08T21:02:22.981Z,10.57
2018-06-08T21:04:51.221Z,10.60
2018-06-08T21:07:19.561Z,10.87
2018-06-08T21:09:47.892Z,10.90
2018-06-08T21:12:16.221Z,11.50
2018-06-08T21:14:44.533Z,11.10
2018-06-08T21:17:12.861Z,10.10
2018-06-08T21:19:41.168Z,11.20
2018-06-08T21:22:09.497Z,11.27
2018-06-08T21:24:37.812Z,12.37
2018-06-08T21:27:06.222Z,11.40
2018-06-08T21:29:34.497Z,12.23
2018-06-08T21:32:02.814Z,11.27
2018-06-08T21:34:31.140Z,10.73
2018-06-08T21:36:59.457Z,11.23
2018-06-08T21:39:27.781Z,11.07
2018-06-08T21:41:56.089Z,11.33
2018-06-08T21:44:24.432Z,11.53
2018-06-08T21:46:52.737Z,10.97
2018-06-08T21:49:21.065Z,11.43
2018-06-08T21:51:49.369Z,11.00
2018-06-08T21:54:17.702Z,11.33
2018-06-08T21:56:46.017Z,11.30
2018-06-08T21:59:14.346Z,11.70
2018-06-08T22:01:42.670Z,11.43
2018-06-08T22:04:11.039Z,10.27
2018-06-08T22:06:39.353Z,10.40
2018-06-08T22:09:07.778Z,12.13
2018-06-08T22:11:36.085Z,11.20
2018-06-08T22:14:04.601Z,11.50
2018-06-08T22:16:32.913Z,12.30
2018-06-08T22:19:01.243Z,11.97
2018-06-08T22:21:29.553Z,12.60
2018-06-08T22:23:57.887Z,12.00
2018-06-08T22:26:26.202Z,11.97
2018-06-08T22:28:54.637Z,12.70
2018-06-08T22:31:22.947Z,11.57
2018-06-08T22:33:51.283Z,12.90
2018-06-08T22:36:19.610Z,12.77
2018-06-08T22:38:47.954Z,12.37
2018-06-08T22:41:16.270Z,12.33
2018-06-08T22:43:44.617Z,13.47
2018-06-08T22:46:12.933Z,12.00
2018-06-08T22:48:41.285Z,12.63
2018-06-08T22:51:09.588Z,12.93
2018-06-08T22:53:37.897Z,13.43
2018-06-08T22:56:06.226Z,13.20
2018-06-08T22:58:34.544Z,13.57
2018-06-08T23:01:02.909Z,13.03
2018-06-08T23:03:31.228Z,12.60
2018-06-08T23:05:59.562Z,13.63
2018-06-08T23:08:27.889Z,12.80
2018-06-08T23:10:56.225Z,12.13
2018-06-08T23:13:24.645Z,12.47
2018-06-08T23:15:52.973Z,12.70
2018-06-08T23:18:21.280Z,12.77
2018-06-08T23:20:49.609Z,12.97
2018-06-08T23:23:18.009Z,12.87
2018-06-08T23:25:46.339Z,12.33
2018-06-08T23:28:14.645Z,13.23
2018-06-08T23:30:42.982Z,12.50
2018-06-08T23:33:11.360Z,13.20
2018-06-08T23:35:39.693Z,14.33
2018-06-08T23:38:08.001Z,13.37
2018-06-08T23:40:36.329Z,13.33
2018-06-08T23:43:04.641Z,13.00
2018-06-08T23:45:32.997Z,13.60
2018-06-08T23:48:01.313Z,13.70
2018-06-08T23:50:29.652Z,12.93
2018-06-08T23:52:57.967Z,12.80
2018-06-08T23:55:26.292Z,11.93
2018-06-08T23:57:54.609Z,12.93
